createdAt,value
2019-04-06T00:01:03.603Z,25.40
2019-04-06T00:03:32.058Z,27.30
2019-04-06T00:06:00.533Z,27.67
2019-04-06T00:08:28.980Z,27.60
2019-04-06T00:10:57.473Z,29.63
2019-04-06T00:13:26.029Z,28.30
2019-04-06T00:15:54.447Z,28.20
2019-04-06T00:18:22.873Z,28.00
2019-04-06T00:20:51.323Z,28.57
2019-04-06T00:23:19.817Z,29.73
2019-04-06T00:25:48.264Z,28.90
2019-04-06T00:28:16.691Z,27.43
2019-04-06T00:30:46.775Z,27.13
2019-04-06T00:33:16.835Z,29.00
2019-04-06T00:35:45.284Z,28.53
2019-04-06T00:38:13.738Z,30.40
2019-04-06T00:40:42.148Z,27.97
2019-04-06T00:43:10.573Z,30.33
2019-04-06T00:45:39.021Z,30.43
2019-04-06T00:48:07.443Z,30.90
2019-04-06T00:50:35.895Z,32.60
2019-04-06T00:53:04.319Z,31.13
2019-04-06T00:55:32.768Z,29.50
2019-04-06T00:58:01.189Z,28.63
2019-04-06T01:00:31.652Z,28.27
2019-04-06T01:03:00.139Z,28.20
2019-04-06T01:05:28.656Z,26.90
2019-04-06T01:07:57.122Z,25.93
2019-04-06T01:10:25.520Z,25.93
2019-04-06T01:12:54.187Z,28.27
2019-04-06T01:15:22.710Z,26.67
2019-04-06T01:17:51.123Z,28.97
2019-04-06T01:20:19.635Z,30.03
2019-04-06T01:22:48.060Z,28.10
2019-04-06T01:25:16.607Z,28.27
2019-04-06T01:27:45.017Z,27.63
2019-04-06T01:30:13.596Z,25.80
2019-04-06T01:32:42.018Z,28.67
2019-04-06T01:35:10.549Z,27.10
2019-04-06T01:37:38.959Z,25.40
2019-04-06T01:40:07.591Z,25.83
2019-04-06T01:42:36.012Z,27.43
2019-04-06T01:45:06.083Z,27.17
2019-04-06T01:47:34.524Z,26.40
2019-04-06T01:50:02.962Z,26.50
2019-04-06T01:52:31.401Z,28.60
2019-04-06T01:54:59.921Z,23.70
2019-04-06T01:57:37.513Z,25.47
2019-04-06T02:00:08.578Z,25.40
2019-04-06T02:02:38.673Z,25.30
2019-04-06T02:05:07.764Z,26.20
2019-04-06T02:07:36.208Z,24.17
2019-04-06T02:10:05.872Z,24.57
2019-04-06T02:12:34.459Z,25.90
2019-04-06T02:15:03.226Z,28.50
2019-04-06T02:17:31.674Z,27.50
2019-04-06T02:20:00.098Z,25.30
2019-04-06T02:22:28.559Z,24.70
2019-04-06T02:24:56.971Z,23.40
2019-04-06T02:27:25.413Z,26.33
2019-04-06T02:30:11.450Z,24.27
2019-04-06T02:32:57.758Z,26.90
2019-04-06T02:35:36.849Z,25.90
2019-04-06T02:38:23.316Z,26.80
2019-04-06T02:41:08.437Z,27.80
2019-04-06T02:43:38.563Z,27.53
2019-04-06T02:46:07.142Z,30.10
2019-04-06T02:48:35.661Z,29.10
2019-04-06T02:51:04.230Z,28.47
2019-04-06T02:53:32.681Z,26.90
2019-04-06T02:56:01.102Z,28.57
2019-04-06T02:58:29.557Z,32.20
2019-04-06T03:00:58.046Z,26.00
2019-04-06T03:03:26.620Z,24.10
2019-04-06T03:05:55.165Z,23.63
2019-04-06T03:08:23.719Z,23.47
2019-04-06T03:10:52.307Z,22.00
2019-04-06T03:13:20.874Z,26.07
2019-04-06T03:15:49.304Z,26.83
2019-04-06T03:18:17.776Z,29.93
2019-04-06T03:20:46.221Z,30.07
2019-04-06T03:23:14.705Z,30.80
2019-04-06T03:25:43.119Z,29.60
2019-04-06T03:28:11.803Z,30.70
2019-04-06T03:30:40.305Z,30.80
2019-04-06T03:33:09.230Z,30.70
2019-04-06T03:35:37.921Z,31.93
2019-04-06T03:38:06.431Z,32.63
2019-04-06T03:40:34.849Z,31.73
2019-04-06T03:43:03.334Z,31.97
2019-04-06T03:45:31.787Z,34.90
2019-04-06T03:48:00.339Z,32.33
2019-04-06T03:50:28.906Z,32.17
2019-04-06T03:52:57.363Z,51.90
2019-04-06T03:55:25.787Z,38.60
2019-04-06T03:57:54.241Z,40.97
2019-04-06T04:00:22.676Z,31.57
2019-04-06T04:02:51.103Z,38.50
2019-04-06T04:05:19.548Z,39.63
2019-04-06T04:07:47.977Z,35.70
2019-04-06T04:10:36.790Z,35.17
2019-04-06T04:13:05.634Z,34.10
2019-04-06T04:15:34.098Z,30.73
2019-04-06T04:18:02.730Z,32.03
2019-04-06T04:20:31.289Z,38.90
2019-04-06T04:22:59.784Z,36.00
2019-04-06T04:25:28.230Z,34.10
2019-04-06T04:27:56.662Z,34.67
2019-04-06T04:30:32.524Z,31.10
2019-04-06T04:32:55.247Z,32.13
2019-04-06T04:35:23.833Z,32.37
2019-04-06T04:37:52.293Z,32.03
2019-04-06T04:40:20.928Z,33.20
2019-04-06T04:42:49.342Z,32.50
2019-04-06T04:45:17.793Z,31.50
2019-04-06T04:47:46.205Z,32.77
2019-04-06T04:50:14.740Z,33.50
2019-04-06T04:52:43.160Z,35.27
2019-04-06T04:55:11.672Z,34.87
2019-04-06T04:57:41.698Z,41.10
2019-04-06T05:00:10.418Z,36.33
2019-04-06T05:02:38.840Z,33.03
2019-04-06T05:05:09.386Z,33.03
2019-04-06T05:07:37.673Z,33.70
2019-04-06T05:10:06.964Z,32.83
2019-04-06T05:12:35.387Z,34.00
2019-04-06T05:15:06.838Z,36.97
2019-04-06T05:17:35.265Z,36.00
2019-04-06T05:20:04.543Z,36.63
2019-04-06T05:22:32.975Z,34.87
2019-04-06T05:25:01.421Z,34.20
2019-04-06T05:27:29.841Z,31.97
2019-04-06T05:29:58.266Z,33.30
2019-04-06T05:32:26.708Z,33.23
2019-04-06T05:34:57.905Z,32.90
2019-04-06T05:37:25.444Z,34.70
2019-04-06T05:39:53.865Z,34.30
2019-04-06T05:42:22.310Z,36.47
2019-04-06T05:44:50.739Z,34.20
2019-04-06T05:47:19.306Z,30.53
2019-04-06T05:49:47.758Z,32.57
2019-04-06T05:52:16.209Z,30.90
2019-04-06T05:54:44.632Z,32.40
2019-04-06T05:57:13.088Z,31.50
2019-04-06T05:59:41.627Z,33.03
2019-04-06T06:02:10.693Z,33.87
2019-04-06T06:04:40.475Z,33.70
2019-04-06T06:07:09.608Z,32.67
2019-04-06T06:09:38.033Z,32.17
2019-04-06T06:12:07.161Z,34.03
2019-04-06T06:14:35.579Z,33.60
2019-04-06T06:17:04.029Z,35.70
2019-04-06T06:19:32.451Z,35.57
2019-04-06T06:22:00.891Z,36.93
2019-04-06T06:24:29.308Z,36.97
2019-04-06T06:26:57.766Z,38.70
2019-04-06T06:29:26.184Z,38.07
2019-04-06T06:31:54.631Z,38.90
2019-04-06T06:34:23.050Z,38.33
2019-04-06T06:36:51.507Z,39.20
2019-04-06T06:39:19.928Z,40.60
2019-04-06T06:41:48.395Z,41.83
2019-04-06T06:44:16.813Z,43.00
2019-04-06T06:46:45.274Z,40.10
2019-04-06T06:49:13.687Z,41.13
2019-04-06T06:51:42.105Z,40.30
2019-04-06T06:54:10.557Z,38.90
2019-04-06T06:56:38.981Z,40.20
2019-04-06T06:59:07.421Z,40.80
2019-04-06T07:01:35.842Z,38.30
2019-04-06T07:04:04.547Z,39.93
2019-04-06T07:06:32.966Z,39.30
2019-04-06T07:09:01.638Z,38.37
2019-04-06T07:11:30.087Z,38.00
2019-04-06T07:13:58.593Z,39.57
2019-04-06T07:16:27.045Z,39.10
2019-04-06T07:18:55.499Z,38.37
2019-04-06T07:21:23.933Z,39.50
2019-04-06T07:23:52.389Z,37.53
2019-04-06T07:26:20.809Z,36.90
2019-04-06T07:28:49.267Z,37.90
2019-04-06T07:31:17.689Z,39.07
2019-04-06T07:33:46.139Z,37.30
2019-04-06T07:36:14.570Z,36.90
2019-04-06T07:38:43.028Z,37.77
2019-04-06T07:41:11.453Z,34.83
2019-04-06T07:43:39.911Z,35.37
2019-04-06T07:46:08.332Z,37.00
2019-04-06T07:48:36.791Z,35.77
2019-04-06T07:51:05.287Z,34.43
2019-04-06T07:53:33.789Z,32.70
2019-04-06T07:56:02.542Z,33.60
2019-04-06T07:58:30.996Z,33.73
2019-04-06T08:00:59.419Z,32.70
2019-04-06T08:03:27.846Z,31.27
2019-04-06T08:05:56.477Z,32.13
2019-04-06T08:08:25.097Z,30.60
2019-04-06T08:10:53.572Z,30.80
2019-04-06T08:13:21.979Z,29.43
2019-04-06T08:15:50.423Z,29.83
2019-04-06T08:18:19.048Z,28.77
2019-04-06T08:20:47.471Z,29.60
2019-04-06T08:23:15.901Z,35.30
2019-04-06T08:25:44.342Z,29.60
2019-04-06T08:28:12.841Z,30.93
2019-04-06T08:30:45.986Z,29.47
2019-04-06T08:33:11.495Z,30.50
2019-04-06T08:35:40.022Z,30.30
2019-04-06T08:38:08.439Z,30.93
2019-04-06T08:40:36.880Z,29.57
2019-04-06T08:43:05.520Z,30.70
2019-04-06T08:45:34.117Z,30.47
2019-04-06T08:48:02.518Z,29.50
2019-04-06T08:50:31.264Z,29.93
2019-04-06T08:52:59.912Z,31.10
2019-04-06T08:55:28.389Z,31.43
2019-04-06T08:57:56.973Z,29.53
2019-04-06T09:00:25.525Z,31.00
2019-04-06T09:02:53.932Z,29.23
2019-04-06T09:05:22.498Z,28.97
2019-04-06T09:07:50.886Z,26.83
2019-04-06T09:10:19.420Z,29.17
2019-04-06T09:12:47.923Z,28.30
2019-04-06T09:15:17.837Z,29.87
2019-04-06T09:17:46.426Z,29.27
2019-04-06T09:20:14.956Z,27.93
2019-04-06T09:22:43.462Z,29.77
2019-04-06T09:25:11.934Z,28.70
2019-04-06T09:27:40.953Z,27.13
2019-04-06T09:30:09.614Z,28.20
2019-04-06T09:32:38.054Z,26.90
2019-04-06T09:35:06.743Z,25.60
2019-04-06T09:37:35.525Z,26.50
2019-04-06T09:40:06.129Z,28.13
2019-04-06T09:42:34.573Z,27.10
2019-04-06T09:45:08.053Z,27.30
2019-04-06T09:47:38.149Z,26.23
2019-04-06T09:50:21.508Z,24.67
2019-04-06T09:53:03.528Z,25.40
2019-04-06T09:55:33.584Z,26.10
2019-04-06T09:58:03.669Z,23.90
2019-04-06T10:00:42.678Z,24.50
2019-04-06T10:03:39.800Z,23.30
2019-04-06T10:06:25.670Z,22.43
2019-04-06T10:09:11.922Z,23.00
2019-04-06T10:11:47.876Z,22.50
2019-04-06T10:14:29.887Z,22.63
2019-04-06T10:17:00.132Z,23.30
2019-04-06T10:19:30.204Z,20.27
2019-04-06T10:22:03.475Z,21.30
2019-04-06T10:24:50.007Z,20.87
2019-04-06T10:27:36.516Z,20.90
2019-04-06T10:30:09.962Z,20.80
2019-04-06T10:32:40.016Z,20.50
2019-04-06T10:35:10.394Z,19.60
2019-04-06T10:37:43.192Z,18.70
2019-04-06T10:40:18.915Z,19.80
2019-04-06T10:43:05.409Z,19.67
2019-04-06T10:45:35.477Z,18.53
2019-04-06T10:48:08.546Z,19.40
2019-04-06T10:50:38.641Z,18.43
2019-04-06T10:53:11.446Z,19.07
2019-04-06T10:55:44.426Z,19.60
2019-04-06T10:58:30.994Z,17.23
2019-04-06T11:01:01.305Z,17.43
2019-04-06T11:03:31.433Z,17.47
2019-04-06T11:06:18.234Z,17.03
2019-04-06T11:08:50.832Z,16.20
2019-04-06T11:11:35.956Z,17.17
2019-04-06T11:14:08.846Z,16.07
2019-04-06T11:16:56.690Z,16.50
2019-04-06T11:19:26.786Z,16.17
2019-04-06T11:21:59.578Z,16.00
2019-04-06T11:24:35.929Z,17.00
2019-04-06T11:27:06.055Z,16.90
2019-04-06T11:29:51.442Z,17.83
2019-04-06T11:32:30.133Z,17.80
2019-04-06T11:35:06.162Z,16.73
2019-04-06T11:37:36.208Z,18.10
2019-04-06T11:40:20.277Z,18.33
2019-04-06T11:42:50.543Z,17.33
2019-04-06T11:45:23.674Z,16.37
2019-04-06T11:48:06.037Z,16.20
2019-04-06T11:50:42.472Z,16.70
2019-04-06T11:53:30.788Z,16.60
2019-04-06T11:56:09.865Z,17.47
2019-04-06T11:58:56.120Z,17.77
2019-04-06T12:01:31.843Z,17.97
2019-04-06T12:04:16.796Z,17.27
2019-04-06T12:06:49.737Z,17.60
2019-04-06T12:09:36.305Z,16.80
2019-04-06T12:12:12.101Z,16.70
2019-04-06T12:14:51.140Z,15.37
2019-04-06T12:17:24.101Z,17.60
2019-04-06T12:19:59.997Z,17.20
2019-04-06T12:22:46.154Z,16.50
2019-04-06T12:25:32.176Z,16.00
2019-04-06T12:28:02.227Z,16.37
2019-04-06T12:30:37.971Z,16.60
2019-04-06T12:33:22.466Z,16.50
2019-04-06T12:36:01.657Z,17.33
2019-04-06T12:38:31.714Z,17.43
2019-04-06T12:41:01.970Z,16.77
2019-04-06T12:43:34.452Z,17.60
2019-04-06T12:46:20.914Z,17.07
2019-04-06T12:48:53.546Z,16.20
2019-04-06T12:51:39.565Z,15.70
2019-04-06T12:54:12.561Z,16.93
2019-04-06T12:56:57.654Z,16.10
2019-04-06T12:59:30.381Z,15.70
2019-04-06T13:02:02.881Z,17.27
2019-04-06T13:04:49.083Z,16.90
2019-04-06T13:07:31.456Z,15.80
2019-04-06T13:10:18.343Z,16.10
2019-04-06T13:12:48.415Z,16.60
2019-04-06T13:15:19.129Z,15.50
2019-04-06T13:17:49.380Z,15.80
2019-04-06T13:20:19.656Z,15.97
2019-04-06T13:23:04.782Z,15.77
2019-04-06T13:25:41.423Z,17.10
2019-04-06T13:28:27.809Z,15.53
2019-04-06T13:31:12.652Z,15.23
2019-04-06T13:33:45.719Z,14.67
2019-04-06T13:36:30.808Z,15.83
2019-04-06T13:39:18.777Z,14.30
2019-04-06T13:42:00.697Z,15.60
2019-04-06T13:44:36.567Z,16.90
2019-04-06T13:47:22.905Z,16.60
2019-04-06T13:50:07.970Z,16.30
2019-04-06T13:52:38.031Z,16.23
2019-04-06T13:55:11.166Z,15.87
2019-04-06T13:57:43.875Z,16.07
2019-04-06T14:00:26.273Z,16.43
2019-04-06T14:02:56.334Z,17.30
2019-04-06T14:05:29.529Z,17.87
2019-04-06T14:08:02.549Z,18.70
2019-04-06T14:10:41.863Z,18.07
2019-04-06T14:13:29.935Z,18.70
2019-04-06T14:16:05.980Z,19.43
2019-04-06T14:18:52.163Z,19.00
2019-04-06T14:21:30.814Z,18.60
2019-04-06T14:24:01.059Z,19.07
2019-04-06T14:26:47.381Z,18.40
2019-04-06T14:29:20.110Z,17.90
2019-04-06T14:31:50.202Z,19.70
2019-04-06T14:34:22.871Z,17.90
2019-04-06T14:36:56.087Z,19.20
2019-04-06T14:39:42.350Z,18.50
2019-04-06T14:42:27.730Z,20.10
2019-04-06T14:45:00.747Z,20.07
2019-04-06T14:47:49.343Z,18.10
2019-04-06T14:50:28.754Z,19.80
2019-04-06T14:52:58.845Z,19.93
2019-04-06T14:55:31.634Z,19.37
2019-04-06T14:58:18.305Z,18.00
2019-04-06T15:01:05.137Z,16.90
2019-04-06T15:03:51.437Z,17.27
2019-04-06T15:06:37.675Z,18.20
2019-04-06T15:09:20.125Z,15.73
2019-04-06T15:12:06.531Z,16.00
2019-04-06T15:14:36.595Z,14.50
2019-04-06T15:17:23.400Z,11.97
2019-04-06T15:19:53.607Z,11.07
2019-04-06T15:22:23.817Z,12.23
2019-04-06T15:24:56.732Z,11.17
2019-04-06T15:27:27.164Z,10.13
2019-04-06T15:30:00.165Z,11.00
2019-04-06T15:32:30.250Z,10.90
2019-04-06T15:35:12.638Z,11.13
2019-04-06T15:37:57.983Z,13.20
2019-04-06T15:40:34.341Z,13.10
2019-04-06T15:43:04.420Z,14.00
2019-04-06T15:45:34.922Z,14.87
2019-04-06T15:48:07.739Z,13.97
2019-04-06T15:50:53.570Z,15.73
2019-04-06T15:53:23.684Z,14.50
2019-04-06T15:55:59.774Z,15.20
2019-04-06T15:58:32.597Z,15.30
2019-04-06T16:01:02.823Z,15.10
2019-04-06T16:03:38.806Z,15.13
2019-04-06T16:06:11.644Z,15.97
2019-04-06T16:08:53.690Z,15.47
2019-04-06T16:11:40.219Z,16.57
2019-04-06T16:14:28.445Z,15.07
2019-04-06T16:16:58.803Z,16.63
2019-04-06T16:19:31.752Z,14.90
2019-04-06T16:22:10.428Z,16.50
2019-04-06T16:24:40.517Z,15.90
2019-04-06T16:27:10.581Z,16.30
2019-04-06T16:29:55.410Z,16.30
2019-04-06T16:32:33.388Z,16.60
2019-04-06T16:34:59.995Z,16.47
2019-04-06T16:37:45.952Z,16.53
2019-04-06T16:40:32.608Z,16.73
2019-04-06T16:43:21.003Z,16.37
2019-04-06T16:45:51.189Z,16.20
2019-04-06T16:48:21.327Z,16.80
2019-04-06T16:51:07.391Z,16.40
2019-04-06T16:53:46.468Z,16.50
2019-04-06T16:56:31.853Z,17.03
2019-04-06T16:59:02.300Z,16.80
2019-04-06T17:01:38.488Z,17.70
2019-04-06T17:04:24.722Z,17.50
2019-04-06T17:07:09.985Z,16.37
2019-04-06T17:09:43.250Z,16.80
2019-04-06T17:12:28.441Z,17.63
2019-04-06T17:15:15.024Z,17.00
2019-04-06T17:18:03.554Z,16.60
2019-04-06T17:20:33.650Z,18.20
2019-04-06T17:23:06.279Z,16.83
2019-04-06T17:25:36.374Z,16.93
2019-04-06T17:28:06.558Z,15.77
2019-04-06T17:30:46.271Z,16.60
2019-04-06T17:33:34.347Z,18.53
2019-04-06T17:36:20.415Z,17.00
2019-04-06T17:38:53.296Z,18.20
2019-04-06T17:41:26.066Z,17.10
2019-04-06T17:43:58.941Z,17.07
2019-04-06T17:46:41.380Z,17.60
2019-04-06T17:49:17.010Z,17.97
2019-04-06T17:51:58.982Z,17.03
2019-04-06T17:54:29.189Z,17.13
2019-04-06T17:57:02.011Z,17.77
2019-04-06T17:59:48.757Z,17.53
2019-04-06T18:02:19.305Z,18.13
2019-04-06T18:04:55.406Z,17.23
2019-04-06T18:07:31.104Z,17.70
2019-04-06T18:10:06.653Z,17.63
2019-04-06T18:12:36.715Z,18.10
2019-04-06T18:15:06.669Z,18.00
2019-04-06T18:17:35.111Z,19.43
2019-04-06T18:20:04.916Z,19.77
2019-04-06T18:22:33.551Z,19.30
2019-04-06T18:25:01.981Z,19.47
2019-04-06T18:27:30.683Z,20.60
2019-04-06T18:29:59.122Z,19.83
2019-04-06T18:32:29.321Z,19.67
2019-04-06T18:34:58.134Z,20.53
2019-04-06T18:37:28.264Z,20.87
2019-04-06T18:39:58.324Z,20.33
2019-04-06T18:42:27.248Z,21.70
2019-04-06T18:44:55.666Z,19.27
2019-04-06T18:47:24.223Z,21.10
2019-04-06T18:49:52.608Z,20.37
2019-04-06T18:52:21.610Z,20.40
2019-04-06T18:54:50.523Z,21.50
2019-04-06T18:57:19.067Z,21.03
2019-04-06T18:59:47.478Z,21.57
2019-04-06T19:02:16.298Z,22.47
2019-04-06T19:04:44.953Z,22.90
2019-04-06T19:07:13.399Z,23.83
2019-04-06T19:09:41.826Z,26.30
2019-04-06T19:12:10.337Z,27.27
2019-04-06T19:14:38.758Z,25.87
2019-04-06T19:17:07.307Z,27.40
2019-04-06T19:19:35.697Z,28.87
2019-04-06T19:22:04.215Z,29.40
2019-04-06T19:24:32.673Z,28.60
2019-04-06T19:27:01.136Z,28.27
2019-04-06T19:29:29.578Z,30.00
2019-04-06T19:31:58.868Z,28.70
2019-04-06T19:34:27.531Z,30.50
2019-04-06T19:36:55.953Z,29.87
2019-04-06T19:39:24.396Z,30.90
2019-04-06T19:41:52.828Z,29.80
2019-04-06T19:44:21.651Z,30.57
2019-04-06T19:46:50.432Z,31.57
2019-04-06T19:49:19.444Z,32.27
2019-04-06T19:51:48.010Z,31.27
2019-04-06T19:54:16.517Z,33.40
2019-04-06T19:56:44.972Z,32.20
2019-04-06T19:59:13.810Z,31.90
2019-04-06T20:01:42.313Z,31.10
2019-04-06T20:04:11.335Z,32.23
2019-04-06T20:06:39.802Z,30.90
2019-04-06T20:09:08.626Z,31.57
2019-04-06T20:11:37.481Z,32.93
2019-04-06T20:14:06.188Z,32.20
2019-04-06T20:16:34.550Z,32.73
2019-04-06T20:19:03.396Z,32.00
2019-04-06T20:21:31.918Z,32.00
2019-04-06T20:24:00.550Z,31.67
2019-04-06T20:26:31.578Z,33.70
2019-04-06T20:28:59.132Z,34.67
2019-04-06T20:31:27.550Z,32.60
2019-04-06T20:33:56.021Z,32.03
2019-04-06T20:36:24.927Z,32.57
2019-04-06T20:38:53.897Z,32.20
2019-04-06T20:41:22.374Z,32.07
2019-04-06T20:43:50.830Z,32.27
2019-04-06T20:46:20.471Z,32.93
2019-04-06T20:48:49.156Z,32.80
2019-04-06T20:51:18.010Z,33.40
2019-04-06T20:53:46.592Z,33.67
2019-04-06T20:56:15.058Z,33.83
2019-04-06T20:58:44.033Z,33.27
2019-04-06T21:01:13.021Z,32.93
2019-04-06T21:03:41.608Z,32.43
2019-04-06T21:06:10.143Z,32.60
2019-04-06T21:08:39.060Z,34.20
2019-04-06T21:11:07.576Z,30.37
2019-04-06T21:13:35.999Z,31.03
2019-04-06T21:16:04.525Z,34.73
2019-04-06T21:18:33.341Z,33.73
2019-04-06T21:21:02.067Z,34.30
2019-04-06T21:23:30.672Z,32.23
2019-04-06T21:25:59.778Z,34.00
2019-04-06T21:28:28.834Z,33.50
2019-04-06T21:30:57.389Z,33.80
2019-04-06T21:33:25.823Z,33.20
2019-04-06T21:35:54.752Z,33.00
2019-04-06T21:38:24.017Z,32.80
2019-04-06T21:40:52.486Z,32.50
2019-04-06T21:43:20.919Z,32.60
2019-04-06T21:45:49.982Z,32.20
2019-04-06T21:48:18.462Z,33.67
2019-04-06T21:50:46.936Z,33.77
2019-04-06T21:53:15.355Z,33.33
2019-04-06T21:55:43.777Z,33.20
2019-04-06T21:58:12.233Z,32.83
2019-04-06T22:00:51.527Z,32.70
2019-04-06T22:03:20.724Z,32.80
2019-04-06T22:05:50.493Z,33.33
2019-04-06T22:08:19.123Z,33.80
2019-04-06T22:10:47.544Z,32.50
2019-04-06T22:13:16.066Z,32.10
2019-04-06T22:15:45.063Z,31.83
2019-04-06T22:18:13.586Z,32.37
2019-04-06T22:20:42.076Z,32.87
2019-04-06T22:23:10.537Z,31.60
2019-04-06T22:25:39.030Z,31.93
2019-04-06T22:28:07.481Z,32.07
2019-04-06T22:30:36.069Z,32.43
2019-04-06T22:33:04.875Z,30.93
2019-04-06T22:35:33.957Z,31.40
2019-04-06T22:38:02.595Z,32.30
2019-04-06T22:40:31.421Z,31.67
2019-04-06T22:42:59.909Z,32.83
2019-04-06T22:45:29.978Z,32.90
2019-04-06T22:47:58.707Z,33.40
2019-04-06T22:50:27.131Z,31.60
2019-04-06T22:52:56.107Z,31.13
2019-04-06T22:55:24.577Z,33.43
2019-04-06T22:57:53.332Z,34.27
2019-04-06T23:00:32.702Z,33.40
2019-04-06T23:03:20.805Z,32.67
2019-04-06T23:05:57.258Z,32.00
2019-04-06T23:08:26.261Z,32.20
2019-04-06T23:10:54.799Z,32.97
2019-04-06T23:13:23.244Z,31.63
2019-04-06T23:15:51.662Z,32.37
2019-04-06T23:18:20.107Z,31.37
2019-04-06T23:20:48.541Z,31.20
2019-04-06T23:23:17.640Z,33.20
2019-04-06T23:25:46.694Z,31.20
2019-04-06T23:28:15.154Z,30.77
2019-04-06T23:30:44.103Z,31.80
2019-04-06T23:33:13.036Z,33.37
2019-04-06T23:35:41.604Z,32.17
2019-04-06T23:38:10.024Z,30.97
2019-04-06T23:40:38.691Z,30.30
2019-04-06T23:43:07.497Z,33.63
2019-04-06T23:45:35.941Z,33.30
2019-04-06T23:48:04.448Z,33.90
2019-04-06T23:50:33.112Z,32.53
2019-04-06T23:53:01.562Z,33.47
2019-04-06T23:55:30.059Z,32.77
2019-04-06T23:57:58.930Z,32.83
